createdAt,value
2023-02-16T00:00:07.318Z,-0.81
2023-02-16T00:05:25.005Z,-0.78
2023-02-16T00:10:32.775Z,-0.68
2023-02-16T00:15:37.074Z,-0.78
2023-02-16T00:20:39.919Z,-0.76
2023-02-16T00:25:42.925Z,-0.84
2023-02-16T00:30:47.823Z,-0.89
2023-02-16T00:35:51.060Z,-0.94
2023-02-16T00:40:54.037Z,-1.20
2023-02-16T00:45:58.705Z,-1.07
2023-02-16T00:51:01.876Z,-1.10
2023-02-16T00:56:05.276Z,-1.05
2023-02-16T01:01:14.264Z,-1.04
2023-02-16T01:06:34.986Z,-1.10
2023-02-16T01:11:37.965Z,-1.24
2023-02-16T01:16:43.420Z,-1.12
2023-02-16T01:21:46.666Z,-1.14
2023-02-16T01:26:51.821Z,-1.21
2023-02-16T01:31:57.024Z,-1.19
2023-02-16T01:36:59.942Z,-1.26
2023-02-16T01:42:31.119Z,-1.30
2023-02-16T01:47:41.961Z,-1.25
2023-02-16T01:52:48.901Z,-1.37
2023-02-16T01:57:57.285Z,-1.36
2023-02-16T02:03:18.594Z,-1.38
2023-02-16T02:08:27.989Z,-1.39
2023-02-16T02:13:37.251Z,-1.47
2023-02-16T02:18:41.545Z,-1.40
2023-02-16T02:24:16.196Z,-1.41
2023-02-16T02:29:41.698Z,-1.40
2023-02-16T02:35:05.290Z,-1.43
2023-02-16T02:40:19.057Z,-1.51
2023-02-16T02:45:28.040Z,-1.54
2023-02-16T02:51:07.576Z,-1.47
2023-02-16T02:56:32.448Z,-1.54
2023-02-16T03:01:41.517Z,-1.54
2023-02-16T03:06:49.038Z,-1.55
2023-02-16T03:12:11.979Z,-1.55
2023-02-16T03:17:36.926Z,-1.65
2023-02-16T03:22:57.621Z,-1.83
2023-02-16T03:28:19.878Z,-1.75
2023-02-16T03:33:25.997Z,-1.63
2023-02-16T03:38:29.327Z,-1.69
2023-02-16T03:43:32.808Z,-1.66
2023-02-16T03:48:38.334Z,-1.76
2023-02-16T03:53:41.314Z,-1.67
2023-02-16T03:58:44.187Z,-1.62
2023-02-16T04:03:48.483Z,-1.83
2023-02-16T04:08:51.939Z,-1.80
2023-02-16T04:13:54.879Z,-2.43
2023-02-16T04:18:59.118Z,-2.09
2023-02-16T04:24:02.606Z,-2.18
2023-02-16T04:29:05.530Z,-2.15
2023-02-16T04:34:10.014Z,-2.17
2023-02-16T04:39:12.894Z,-2.36
2023-02-16T04:44:15.786Z,-2.25
2023-02-16T04:49:20.050Z,-2.41
2023-02-16T04:54:23.566Z,-2.24
2023-02-16T04:59:27.116Z,-2.01
2023-02-16T05:04:31.944Z,-2.67
2023-02-16T05:09:34.908Z,-2.51
2023-02-16T05:14:45.068Z,-2.28
2023-02-16T05:19:51.250Z,-2.14
2023-02-16T05:24:54.223Z,-2.17
2023-02-16T05:29:58.085Z,-2.36
2023-02-16T05:35:02.468Z,-2.14
2023-02-16T05:40:05.993Z,-2.05
2023-02-16T05:45:09.924Z,-2.06
2023-02-16T05:50:14.326Z,-2.03
2023-02-16T05:55:17.208Z,-1.95
2023-02-16T06:00:21.570Z,-2.00
2023-02-16T06:05:25.805Z,-1.88
2023-02-16T06:10:28.698Z,-1.78
2023-02-16T06:15:31.654Z,-1.72
2023-02-16T06:20:35.940Z,-1.90
2023-02-16T06:25:39.492Z,-1.84
2023-02-16T06:30:43.027Z,-1.67
2023-02-16T06:35:47.300Z,-1.43
2023-02-16T06:40:52.989Z,-1.37
2023-02-16T06:45:55.898Z,-1.28
2023-02-16T06:51:00.176Z,-1.30
2023-02-16T06:56:03.045Z,-1.29
2023-02-16T07:01:06.553Z,-1.17
2023-02-16T07:06:11.021Z,-1.26
2023-02-16T07:11:15.892Z,-1.15
2023-02-16T07:16:18.987Z,-1.08
2023-02-16T07:21:23.345Z,-0.89
2023-02-16T07:26:26.578Z,-0.89
2023-02-16T07:31:29.553Z,-0.73
2023-02-16T07:36:34.123Z,-0.55
2023-02-16T07:41:37.044Z,-0.46
2023-02-16T07:46:43.670Z,-0.31
2023-02-16T07:51:47.923Z,0.09
2023-02-16T07:56:50.822Z,0.70
2023-02-16T08:01:53.825Z,0.97
2023-02-16T08:06:58.342Z,1.62
2023-02-16T08:12:01.270Z,1.73
2023-02-16T08:17:04.366Z,1.94
2023-02-16T08:22:09.995Z,2.16
2023-02-16T08:27:12.956Z,2.71
2023-02-16T08:32:15.898Z,2.99
2023-02-16T08:37:20.197Z,3.55
2023-02-16T08:42:23.070Z,3.42
2023-02-16T08:47:25.942Z,4.05
2023-02-16T08:52:30.249Z,4.32
2023-02-16T08:57:34.784Z,4.05
2023-02-16T09:02:37.725Z,5.07
2023-02-16T09:07:42.046Z,5.42
2023-02-16T09:12:48.432Z,5.61
2023-02-16T09:17:51.568Z,5.81
2023-02-16T09:22:55.859Z,5.37
2023-02-16T09:27:58.781Z,5.91
2023-02-16T09:33:02.154Z,6.23
2023-02-16T09:38:07.683Z,6.74
2023-02-16T09:43:25.890Z,7.17
2023-02-16T09:48:37.533Z,6.49
2023-02-16T09:53:46.483Z,7.12
2023-02-16T09:58:56.780Z,6.77
2023-02-16T10:04:12.265Z,7.16
2023-02-16T10:09:19.671Z,8.02
2023-02-16T10:14:32.617Z,8.23
2023-02-16T10:19:40.500Z,8.52
2023-02-16T10:24:53.836Z,8.48
2023-02-16T10:29:57.029Z,9.02
2023-02-16T10:35:13.519Z,9.38
2023-02-16T10:40:32.521Z,9.69
2023-02-16T10:45:41.185Z,9.82
2023-02-16T10:50:50.710Z,9.98
2023-02-16T10:55:55.513Z,10.10
2023-02-16T11:01:06.756Z,10.19
2023-02-16T11:06:15.647Z,10.36
2023-02-16T11:11:22.817Z,10.54
2023-02-16T11:16:26.300Z,10.35
2023-02-16T11:21:47.383Z,10.58
2023-02-16T11:27:00.914Z,10.66
2023-02-16T11:32:08.979Z,10.50
2023-02-16T11:37:17.064Z,10.65
2023-02-16T11:42:29.929Z,10.65
2023-02-16T11:47:35.446Z,10.81
2023-02-16T11:52:38.451Z,10.72
2023-02-16T11:57:42.707Z,10.94
2023-02-16T12:03:11.063Z,11.17
2023-02-16T12:08:39.393Z,11.25
2023-02-16T12:13:56.383Z,11.47
2023-02-16T12:19:09.582Z,11.27
2023-02-16T12:24:26.580Z,11.28
2023-02-16T12:29:41.450Z,11.48
2023-02-16T12:34:59.585Z,11.43
2023-02-16T12:40:17.985Z,11.42
2023-02-16T12:45:24.964Z,11.63
2023-02-16T12:50:30.582Z,11.78
2023-02-16T12:55:39.279Z,11.91
2023-02-16T13:00:48.609Z,11.75
2023-02-16T13:06:00.881Z,11.63
2023-02-16T13:11:09.672Z,11.71
2023-02-16T13:16:28.926Z,11.61
2023-02-16T13:21:51.370Z,11.78
2023-02-16T13:27:08.937Z,12.02
2023-02-16T13:32:38.555Z,11.97
2023-02-16T13:38:01.181Z,11.93
2023-02-16T13:43:17.707Z,12.08
2023-02-16T13:48:26.937Z,11.75
2023-02-16T13:53:37.477Z,11.97
2023-02-16T13:58:41.621Z,12.01
2023-02-16T14:03:45.960Z,12.03
2023-02-16T14:09:29.862Z,12.17
2023-02-16T14:14:36.435Z,12.17
2023-02-16T14:19:40.785Z,11.95
2023-02-16T14:24:44.750Z,11.74
2023-02-16T14:29:57.629Z,11.87
2023-02-16T14:35:09.236Z,11.79
2023-02-16T14:40:18.309Z,11.65
2023-02-16T14:45:54.119Z,11.47
2023-02-16T14:51:18.316Z,11.38
2023-02-16T14:56:44.005Z,11.27
2023-02-16T15:01:47.207Z,11.10
2023-02-16T15:06:51.583Z,11.10
2023-02-16T15:12:14.351Z,11.02
2023-02-16T15:17:26.945Z,10.76
2023-02-16T15:22:31.801Z,10.55
2023-02-16T15:27:34.971Z,10.39
2023-02-16T15:32:38.495Z,10.38
2023-02-16T15:37:42.881Z,10.13
2023-02-16T15:42:46.006Z,10.05
2023-02-16T15:47:49.322Z,10.07
2023-02-16T15:52:54.900Z,9.93
2023-02-16T15:57:59.002Z,9.77
2023-02-16T16:03:02.711Z,9.36
2023-02-16T16:08:12.289Z,8.80
2023-02-16T16:13:19.993Z,8.64
2023-02-16T16:18:43.290Z,8.25
2023-02-16T16:24:00.504Z,8.88
2023-02-16T16:29:04.224Z,8.40
2023-02-16T16:34:09.000Z,8.12
2023-02-16T16:39:27.563Z,8.43
2023-02-16T16:44:35.000Z,8.32
2023-02-16T16:49:38.036Z,8.42
2023-02-16T16:54:42.650Z,8.57
2023-02-16T16:59:47.310Z,8.44
2023-02-16T17:04:50.685Z,8.47
2023-02-16T17:09:55.531Z,8.52
2023-02-16T17:14:59.801Z,8.53
2023-02-16T17:20:03.457Z,8.66
2023-02-16T17:25:08.272Z,8.60
2023-02-16T17:30:12.649Z,8.48
2023-02-16T17:35:16.112Z,8.55
2023-02-16T17:40:23.518Z,8.44
2023-02-16T17:45:26.530Z,8.39
2023-02-16T17:50:30.387Z,8.60
2023-02-16T17:55:35.631Z,8.64
2023-02-16T18:00:39.266Z,8.50
2023-02-16T18:05:42.425Z,8.61
2023-02-16T18:10:48.486Z,8.41
2023-02-16T18:15:51.434Z,8.22
2023-02-16T18:20:54.554Z,8.35
2023-02-16T18:25:58.983Z,8.21
2023-02-16T18:31:02.994Z,8.23
2023-02-16T18:36:06.810Z,8.37
2023-02-16T18:41:11.459Z,8.31
2023-02-16T18:46:14.516Z,8.26
2023-02-16T18:51:18.403Z,8.28
2023-02-16T18:56:22.719Z,8.25
2023-02-16T19:01:30.813Z,8.17
2023-02-16T19:06:34.113Z,8.19
2023-02-16T19:11:38.475Z,8.19
2023-02-16T19:16:41.955Z,8.16
2023-02-16T19:21:45.467Z,8.14
2023-02-16T19:26:49.717Z,8.17
2023-02-16T19:31:52.746Z,8.14
2023-02-16T19:36:55.736Z,8.21
2023-02-16T19:42:00.646Z,8.18
2023-02-16T19:47:04.193Z,8.20
2023-02-16T19:52:07.109Z,8.26
2023-02-16T19:57:11.378Z,8.15
2023-02-16T20:02:15.560Z,8.15
2023-02-16T20:07:18.490Z,8.24
2023-02-16T20:12:22.745Z,8.22
2023-02-16T20:17:25.933Z,8.25
2023-02-16T20:22:28.927Z,8.46
2023-02-16T20:27:33.431Z,8.34
2023-02-16T20:32:36.541Z,8.30
2023-02-16T20:37:39.494Z,8.28
2023-02-16T20:42:43.975Z,8.38
2023-02-16T20:47:46.903Z,8.34
2023-02-16T20:52:49.829Z,8.45
2023-02-16T20:57:54.096Z,8.42
2023-02-16T21:02:57.154Z,8.43
2023-02-16T21:08:00.114Z,8.45
2023-02-16T21:13:04.422Z,8.45
2023-02-16T21:18:07.311Z,8.51
2023-02-16T21:23:10.266Z,8.45
2023-02-16T21:28:14.759Z,8.46
2023-02-16T21:33:17.699Z,8.48
2023-02-16T21:38:20.603Z,8.47
2023-02-16T21:43:24.947Z,8.46
2023-02-16T21:48:45.139Z,8.39
2023-02-16T21:53:48.317Z,8.36
2023-02-16T21:58:52.608Z,8.35
2023-02-16T22:03:58.736Z,8.37
2023-02-16T22:09:02.103Z,8.44
2023-02-16T22:14:06.460Z,8.35
2023-02-16T22:19:12.781Z,8.43
2023-02-16T22:24:17.389Z,8.52
2023-02-16T22:29:21.698Z,8.46
2023-02-16T22:34:24.621Z,8.55
2023-02-16T22:39:27.509Z,8.52
2023-02-16T22:44:31.797Z,8.53
2023-02-16T22:49:34.742Z,8.62
2023-02-16T22:54:37.824Z,8.66
2023-02-16T22:59:42.175Z,8.71
2023-02-16T23:04:45.086Z,8.66
2023-02-16T23:09:47.952Z,8.63
2023-02-16T23:14:52.185Z,8.63
2023-02-16T23:19:55.070Z,8.61
2023-02-16T23:25:11.814Z,8.43
2023-02-16T23:30:16.283Z,8.51
2023-02-16T23:35:19.482Z,8.51
2023-02-16T23:40:22.448Z,8.54
2023-02-16T23:45:26.749Z,8.52
2023-02-16T23:50:29.782Z,8.49
2023-02-16T23:55:32.691Z,8.63
